MPD99T EIDW-EETN
Flight info
| Callsign | MPD99T |
|---|---|
| Flight time | 2h 20m |
| Altitude | 39000 |
| Route | ROTEV3J ROTEV DCT GOTNA DCT ALOTI DCT RUMOG DCT PIPEX DCT LUNIP DCT MOGLU DCT NISIX DCT OSTOT DCT OSMUR |
| Aircraft | A343/H-SDE2E3FGHIJ4J5M1RWXY/LB1D1 |
Departure
| Time | 2026-05-05 17:25 |
|---|---|
| Airport | Dublin Airport (EIDW) |
Arrival
| Time | 2026-05-05 19:45 |
|---|---|
| Airport | Lennart Meri Tallinn Airport (EETN) |
| Time | Latitude | Longitude | Altitude | Speed | Heading |
|---|---|---|---|---|---|
| 2026-05-05 16:57 | 53.43281 | -6.25401 | 215 ft | 0 kts | 336° |
| 2026-05-05 17:16 | 53.43270 | -6.25394 | 225 ft | 4 kts | 336° |
| 2026-05-05 17:16 | 53.43246 | -6.25377 | 222 ft | 2 kts | 337° |
| 2026-05-05 17:16 | 53.43227 | -6.25357 | 228 ft | 4 kts | 298° |
| 2026-05-05 17:16 | 53.43224 | -6.25328 | 228 ft | 0 kts | 249° |
| 2026-05-05 17:20 | 53.43222 | -6.25335 | 228 ft | 2 kts | 249° |
| 2026-05-05 17:20 | 53.43213 | -6.25372 | 217 ft | 6 kts | 245° |
| 2026-05-05 17:20 | 53.43185 | -6.25464 | 225 ft | 10 kts | 233° |
| 2026-05-05 17:20 | 53.43111 | -6.25472 | 220 ft | 13 kts | 162° |
| 2026-05-05 17:21 | 53.43009 | -6.25398 | 223 ft | 18 kts | 156° |
| 2026-05-05 17:21 | 53.42896 | -6.25316 | 222 ft | 18 kts | 156° |
| 2026-05-05 17:21 | 53.42785 | -6.25235 | 225 ft | 17 kts | 156° |
| 2026-05-05 17:22 | 53.42602 | -6.25030 | 225 ft | 15 kts | 155° |
| 2026-05-05 17:22 | 53.42502 | -6.24959 | 225 ft | 17 kts | 158° |
| 2026-05-05 17:22 | 53.42379 | -6.24876 | 221 ft | 20 kts | 157° |
| 2026-05-05 17:22 | 53.42256 | -6.24783 | 223 ft | 17 kts | 156° |
| 2026-05-05 17:23 | 53.42148 | -6.24765 | 219 ft | 16 kts | 204° |
| 2026-05-05 17:23 | 53.42072 | -6.24886 | 225 ft | 15 kts | 220° |
| 2026-05-05 17:23 | 53.42026 | -6.24965 | 223 ft | 3 kts | 288° |
| 2026-05-05 17:23 | 53.42039 | -6.24988 | 220 ft | 3 kts | 317° |
| 2026-05-05 17:24 | 53.42052 | -6.25001 | 222 ft | 0 kts | 330° |
| 2026-05-05 17:24 | 53.42070 | -6.25018 | 223 ft | 21 kts | 331° |
| 2026-05-05 17:24 | 53.42416 | -6.25289 | 223 ft | 87 kts | 338° |
| 2026-05-05 17:24 | 53.43156 | -6.25809 | 225 ft | 143 kts | 337° |
| 2026-05-05 17:25 | 53.44175 | -6.26541 | 574 ft | 162 kts | 342° |
| 2026-05-05 17:25 | 53.44886 | -6.27026 | 1079 ft | 166 kts | 340° |
| 2026-05-05 17:25 | 53.46358 | -6.28067 | 1848 ft | 188 kts | 339° |
| 2026-05-05 17:25 | 53.47626 | -6.28977 | 2192 ft | 206 kts | 338° |
| 2026-05-05 17:26 | 53.49025 | -6.29987 | 2473 ft | 231 kts | 338° |
| 2026-05-05 17:26 | 53.50542 | -6.31067 | 3095 ft | 240 kts | 341° |
| 2026-05-05 17:26 | 53.52188 | -6.31526 | 3877 ft | 243 kts | 2° |
| 2026-05-05 17:26 | 53.53888 | -6.31298 | 4638 ft | 248 kts | 5° |
| 2026-05-05 17:27 | 53.55618 | -6.30975 | 5400 ft | 253 kts | 5° |
| 2026-05-05 17:27 | 53.57391 | -6.30640 | 6129 ft | 259 kts | 4° |
| 2026-05-05 17:27 | 53.59207 | -6.30301 | 6811 ft | 266 kts | 4° |
| 2026-05-05 17:27 | 53.61054 | -6.29958 | 7559 ft | 268 kts | 2° |
| 2026-05-05 17:28 | 53.62916 | -6.29663 | 8298 ft | 270 kts | 2° |
| 2026-05-05 17:28 | 53.64775 | -6.29373 | 9012 ft | 273 kts | 2° |
| 2026-05-05 17:28 | 53.66675 | -6.29056 | 9727 ft | 276 kts | 3° |
| 2026-05-05 17:28 | 53.68603 | -6.28718 | 10331 ft | 282 kts | 3° |
| 2026-05-05 17:29 | 53.70609 | -6.28308 | 10583 ft | 299 kts | 7° |
| 2026-05-05 17:29 | 53.72683 | -6.27372 | 10792 ft | 318 kts | 15° |
| 2026-05-05 17:29 | 53.74821 | -6.26094 | 11020 ft | 334 kts | 17° |
| 2026-05-05 17:29 | 53.77033 | -6.24654 | 11340 ft | 346 kts | 18° |
| 2026-05-05 17:30 | 53.79288 | -6.23136 | 11843 ft | 351 kts | 19° |
| 2026-05-05 17:30 | 53.81564 | -6.21544 | 12422 ft | 356 kts | 21° |
| 2026-05-05 17:30 | 53.83856 | -6.19900 | 13027 ft | 360 kts | 20° |
| 2026-05-05 17:30 | 53.86182 | -6.18250 | 13635 ft | 364 kts | 20° |
| 2026-05-05 17:31 | 53.88537 | -6.16599 | 14187 ft | 368 kts | 20° |
| 2026-05-05 17:31 | 53.90918 | -6.14940 | 14746 ft | 371 kts | 20° |
| 2026-05-05 17:31 | 53.93319 | -6.13272 | 15319 ft | 374 kts | 20° |
| 2026-05-05 17:31 | 53.95740 | -6.11593 | 15879 ft | 377 kts | 20° |
| 2026-05-05 17:32 | 53.98147 | -6.09923 | 16429 ft | 380 kts | 19° |
| 2026-05-05 17:32 | 54.00608 | -6.08215 | 16988 ft | 383 kts | 19° |
| 2026-05-05 17:32 | 54.03086 | -6.06493 | 17540 ft | 387 kts | 19° |
| 2026-05-05 17:32 | 54.05568 | -6.04679 | 18092 ft | 390 kts | 22° |
| 2026-05-05 17:33 | 54.08038 | -6.02692 | 18593 ft | 394 kts | 24° |
| 2026-05-05 17:33 | 54.10504 | -6.00577 | 19033 ft | 398 kts | 22° |
| 2026-05-05 17:33 | 54.13015 | -5.98543 | 19436 ft | 401 kts | 20° |
| 2026-05-05 17:33 | 54.15562 | -5.96565 | 19878 ft | 403 kts | 20° |
| 2026-05-05 17:34 | 54.18127 | -5.94579 | 20281 ft | 406 kts | 20° |
| 2026-05-05 17:34 | 54.20704 | -5.92551 | 20711 ft | 409 kts | 20° |
| 2026-05-05 17:34 | 54.23287 | -5.90483 | 21135 ft | 412 kts | 21° |
| 2026-05-05 17:34 | 54.25884 | -5.88371 | 21538 ft | 415 kts | 21° |
| 2026-05-05 17:35 | 54.28495 | -5.86228 | 21950 ft | 418 kts | 21° |
| 2026-05-05 17:35 | 54.31122 | -5.84057 | 22348 ft | 420 kts | 21° |
| 2026-05-05 17:35 | 54.33761 | -5.81869 | 22737 ft | 423 kts | 21° |
| 2026-05-05 17:35 | 54.36418 | -5.79661 | 23142 ft | 426 kts | 21° |
| 2026-05-05 17:36 | 54.39089 | -5.77440 | 23524 ft | 428 kts | 21° |
| 2026-05-05 17:36 | 54.41741 | -5.75236 | 23856 ft | 430 kts | 21° |
| 2026-05-05 17:36 | 54.44447 | -5.72985 | 24173 ft | 433 kts | 21° |
| 2026-05-05 17:36 | 54.47168 | -5.70719 | 24472 ft | 435 kts | 21° |
| 2026-05-05 17:37 | 54.49900 | -5.68440 | 24787 ft | 437 kts | 21° |
| 2026-05-05 17:37 | 54.51710 | -5.66927 | 24970 ft | 438 kts | 21° |
| 2026-05-05 17:37 | 54.55384 | -5.63824 | 25359 ft | 442 kts | 24° |
| 2026-05-05 17:37 | 54.58021 | -5.61039 | 25613 ft | 447 kts | 32° |
| 2026-05-05 17:38 | 54.60419 | -5.57596 | 25908 ft | 451 kts | 41° |
| 2026-05-05 17:38 | 54.62522 | -5.53557 | 26236 ft | 453 kts | 46° |
| 2026-05-05 17:38 | 54.64498 | -5.49294 | 26517 ft | 456 kts | 49° |
| 2026-05-05 17:38 | 54.66418 | -5.44907 | 26761 ft | 459 kts | 50° |
| 2026-05-05 17:39 | 54.68316 | -5.40443 | 27038 ft | 461 kts | 50° |
| 2026-05-05 17:39 | 54.70209 | -5.35947 | 27312 ft | 463 kts | 51° |
| 2026-05-05 17:39 | 54.72104 | -5.31441 | 27549 ft | 465 kts | 50° |
| 2026-05-05 17:39 | 54.73991 | -5.26969 | 27792 ft | 466 kts | 50° |
| 2026-05-05 17:40 | 54.75913 | -5.22428 | 28035 ft | 468 kts | 50° |
| 2026-05-05 17:40 | 54.77847 | -5.17867 | 28269 ft | 470 kts | 50° |
| 2026-05-05 17:40 | 54.79786 | -5.13295 | 28497 ft | 472 kts | 50° |
| 2026-05-05 17:40 | 54.81735 | -5.08695 | 28753 ft | 473 kts | 50° |
| 2026-05-05 17:41 | 54.83686 | -5.04084 | 28968 ft | 475 kts | 50° |
| 2026-05-05 17:41 | 54.85643 | -4.99448 | 29195 ft | 477 kts | 50° |
| 2026-05-05 17:41 | 54.87605 | -4.94791 | 29417 ft | 478 kts | 50° |
| 2026-05-05 17:41 | 54.89570 | -4.90118 | 29636 ft | 480 kts | 51° |
| 2026-05-05 17:42 | 54.91543 | -4.85416 | 29881 ft | 482 kts | 51° |
| 2026-05-05 17:42 | 54.93521 | -4.80693 | 30055 ft | 484 kts | 51° |
| 2026-05-05 17:42 | 54.95502 | -4.75952 | 30217 ft | 486 kts | 51° |
| 2026-05-05 17:42 | 54.97494 | -4.71175 | 30409 ft | 487 kts | 51° |
| 2026-05-05 17:43 | 54.99481 | -4.66403 | 30574 ft | 488 kts | 51° |
| 2026-05-05 17:43 | 55.01474 | -4.61604 | 30744 ft | 490 kts | 51° |
| 2026-05-05 17:43 | 55.03473 | -4.56783 | 30913 ft | 490 kts | 51° |
| 2026-05-05 17:43 | 55.05468 | -4.51962 | 31054 ft | 492 kts | 51° |
| 2026-05-05 17:44 | 55.07486 | -4.47084 | 31039 ft | 498 kts | 51° |
| 2026-05-05 17:44 | 55.11570 | -4.37165 | 31044 ft | 508 kts | 51° |
| 2026-05-05 17:45 | 55.15699 | -4.27076 | 31043 ft | 509 kts | 51° |
| 2026-05-05 17:45 | 55.19808 | -4.16997 | 31062 ft | 508 kts | 51° |
| 2026-05-05 17:46 | 55.23888 | -4.06964 | 31046 ft | 509 kts | 51° |
| 2026-05-05 17:46 | 55.27986 | -3.96851 | 31056 ft | 509 kts | 51° |
| 2026-05-05 17:47 | 55.32080 | -3.86704 | 31056 ft | 509 kts | 52° |
| 2026-05-05 17:47 | 55.35504 | -3.78179 | 31055 ft | 510 kts | 52° |
| 2026-05-05 17:48 | 55.39558 | -3.68049 | 31064 ft | 510 kts | 52° |
| 2026-05-05 17:48 | 55.43637 | -3.57823 | 31069 ft | 510 kts | 52° |
| 2026-05-05 17:49 | 55.47705 | -3.47582 | 31098 ft | 510 kts | 52° |
| 2026-05-05 17:49 | 55.51762 | -3.37320 | 31078 ft | 510 kts | 52° |
| 2026-05-05 17:50 | 55.55818 | -3.27023 | 31079 ft | 511 kts | 52° |
| 2026-05-05 17:50 | 55.59870 | -3.16688 | 31085 ft | 512 kts | 52° |
| 2026-05-05 17:51 | 55.63803 | -3.06263 | 31090 ft | 512 kts | 56° |
| 2026-05-05 17:51 | 55.67721 | -2.95742 | 31085 ft | 511 kts | 55° |
| 2026-05-05 17:52 | 55.71702 | -2.85292 | 31096 ft | 511 kts | 54° |
| 2026-05-05 17:52 | 55.75714 | -2.74876 | 31124 ft | 512 kts | 54° |
| 2026-05-05 17:53 | 55.79736 | -2.64418 | 31091 ft | 513 kts | 54° |
| 2026-05-05 17:53 | 55.83755 | -2.53917 | 31092 ft | 513 kts | 54° |
| 2026-05-05 17:54 | 55.87766 | -2.43385 | 31106 ft | 513 kts | 54° |
| 2026-05-05 17:54 | 55.91760 | -2.32846 | 31090 ft | 514 kts | 54° |
| 2026-05-05 17:55 | 55.94533 | -2.25503 | 31104 ft | 514 kts | 55° |
| 2026-05-05 17:55 | 55.98524 | -2.14896 | 31107 ft | 514 kts | 55° |
| 2026-05-05 17:56 | 56.02526 | -2.04214 | 31107 ft | 519 kts | 55° |
| 2026-05-05 17:56 | 56.06535 | -1.93465 | 31110 ft | 519 kts | 55° |
| 2026-05-05 17:57 | 56.10532 | -1.82701 | 31107 ft | 519 kts | 55° |
| 2026-05-05 17:57 | 56.14521 | -1.71910 | 31106 ft | 519 kts | 55° |
| 2026-05-05 17:58 | 56.18480 | -1.61152 | 31229 ft | 521 kts | 55° |
| 2026-05-05 17:58 | 56.20468 | -1.55733 | 31427 ft | 520 kts | 55° |
| 2026-05-05 17:58 | 56.22461 | -1.50289 | 31647 ft | 520 kts | 56° |
| 2026-05-05 17:58 | 56.24446 | -1.44852 | 31873 ft | 520 kts | 56° |
| 2026-05-05 17:59 | 56.26427 | -1.39415 | 32106 ft | 520 kts | 56° |
| 2026-05-05 17:59 | 56.28403 | -1.33981 | 32330 ft | 519 kts | 56° |
| 2026-05-05 17:59 | 56.30378 | -1.28537 | 32567 ft | 519 kts | 55° |
| 2026-05-05 17:59 | 56.32357 | -1.23067 | 32668 ft | 522 kts | 56° |
| 2026-05-05 18:00 | 56.34339 | -1.17580 | 32809 ft | 522 kts | 56° |
| 2026-05-05 18:00 | 56.36317 | -1.12092 | 32973 ft | 522 kts | 56° |
| 2026-05-05 18:00 | 56.38294 | -1.06592 | 33082 ft | 523 kts | 56° |
| 2026-05-05 18:01 | 56.42243 | -0.95567 | 33097 ft | 522 kts | 56° |
| 2026-05-05 18:01 | 56.46176 | -0.84538 | 33092 ft | 521 kts | 56° |
| 2026-05-05 18:02 | 56.50068 | -0.73578 | 33091 ft | 521 kts | 56° |
| 2026-05-05 18:02 | 56.53973 | -0.62528 | 33085 ft | 521 kts | 56° |
| 2026-05-05 18:03 | 56.57873 | -0.51442 | 33119 ft | 521 kts | 56° |
| 2026-05-05 18:03 | 56.61770 | -0.40312 | 33086 ft | 523 kts | 56° |
| 2026-05-05 18:04 | 56.65661 | -0.29148 | 33087 ft | 523 kts | 56° |
| 2026-05-05 18:04 | 56.69548 | -0.17947 | 33085 ft | 523 kts | 56° |
| 2026-05-05 18:05 | 56.73401 | -0.06790 | 33086 ft | 523 kts | 56° |
| 2026-05-05 18:05 | 56.77268 | 0.04462 | 33084 ft | 524 kts | 56° |
| 2026-05-05 18:06 | 56.81134 | 0.15761 | 33086 ft | 525 kts | 57° |
| 2026-05-05 18:06 | 56.84989 | 0.27081 | 33097 ft | 525 kts | 56° |
| 2026-05-05 18:07 | 56.88817 | 0.38375 | 33077 ft | 526 kts | 57° |
| 2026-05-05 18:07 | 56.92661 | 0.49771 | 33074 ft | 526 kts | 57° |
| 2026-05-05 18:08 | 56.96495 | 0.61192 | 33081 ft | 526 kts | 57° |
| 2026-05-05 18:08 | 57.00327 | 0.72660 | 33077 ft | 528 kts | 57° |
| 2026-05-05 18:09 | 57.04152 | 0.84162 | 33069 ft | 528 kts | 57° |
| 2026-05-05 18:09 | 57.07967 | 0.95692 | 33074 ft | 528 kts | 57° |
| 2026-05-05 18:10 | 57.11748 | 1.07176 | 33078 ft | 528 kts | 57° |
| 2026-05-05 18:10 | 57.15547 | 1.18767 | 33067 ft | 529 kts | 57° |
| 2026-05-05 18:11 | 57.19349 | 1.30423 | 33069 ft | 530 kts | 57° |
| 2026-05-05 18:11 | 57.23140 | 1.42104 | 33069 ft | 531 kts | 57° |
| 2026-05-05 18:12 | 57.26923 | 1.53819 | 33068 ft | 531 kts | 57° |
| 2026-05-05 18:12 | 57.30693 | 1.65550 | 33066 ft | 531 kts | 57° |
| 2026-05-05 18:13 | 57.34451 | 1.77302 | 33061 ft | 531 kts | 57° |
| 2026-05-05 18:13 | 57.38203 | 1.89096 | 33073 ft | 532 kts | 57° |
| 2026-05-05 18:14 | 57.41935 | 2.00882 | 33061 ft | 534 kts | 57° |
| 2026-05-05 18:14 | 57.45690 | 2.12802 | 33061 ft | 534 kts | 58° |
| 2026-05-05 18:15 | 57.49432 | 2.24742 | 33048 ft | 534 kts | 58° |
| 2026-05-05 18:15 | 57.53160 | 2.36697 | 33047 ft | 534 kts | 58° |
| 2026-05-05 18:16 | 57.56886 | 2.48706 | 33038 ft | 535 kts | 58° |
| 2026-05-05 18:16 | 57.60603 | 2.60747 | 33037 ft | 536 kts | 58° |
| 2026-05-05 18:17 | 57.64285 | 2.72738 | 33042 ft | 536 kts | 58° |
| 2026-05-05 18:17 | 57.67993 | 2.84873 | 33039 ft | 538 kts | 58° |
| 2026-05-05 18:18 | 57.71691 | 2.97038 | 33048 ft | 538 kts | 58° |
| 2026-05-05 18:18 | 57.75378 | 3.09233 | 33048 ft | 539 kts | 58° |
| 2026-05-05 18:19 | 57.79063 | 3.21485 | 33042 ft | 539 kts | 58° |
| 2026-05-05 18:19 | 57.82736 | 3.33760 | 33042 ft | 539 kts | 58° |
| 2026-05-05 18:20 | 57.86398 | 3.46063 | 33040 ft | 539 kts | 58° |
| 2026-05-05 18:20 | 57.89998 | 3.58436 | 33040 ft | 542 kts | 63° |
| 2026-05-05 18:21 | 57.92593 | 3.71692 | 33040 ft | 545 kts | 70° |
| 2026-05-05 18:21 | 57.94880 | 3.85331 | 33039 ft | 546 kts | 72° |
| 2026-05-05 18:22 | 57.97091 | 3.99034 | 33035 ft | 546 kts | 72° |
| 2026-05-05 18:22 | 57.99298 | 4.12748 | 33031 ft | 547 kts | 72° |
| 2026-05-05 18:23 | 58.01506 | 4.26470 | 33030 ft | 546 kts | 72° |
| 2026-05-05 18:23 | 58.03690 | 4.40118 | 33031 ft | 547 kts | 72° |
| 2026-05-05 18:24 | 58.05874 | 4.53872 | 33029 ft | 547 kts | 72° |
| 2026-05-05 18:24 | 58.08043 | 4.67643 | 33023 ft | 547 kts | 72° |
| 2026-05-05 18:25 | 58.10196 | 4.81432 | 33023 ft | 547 kts | 72° |
| 2026-05-05 18:25 | 58.12336 | 4.95251 | 33015 ft | 548 kts | 72° |
| 2026-05-05 18:26 | 58.14469 | 5.09135 | 33011 ft | 549 kts | 72° |
| 2026-05-05 18:26 | 58.16587 | 5.23035 | 33014 ft | 549 kts | 73° |
| 2026-05-05 18:27 | 58.18677 | 5.36864 | 33008 ft | 549 kts | 73° |
| 2026-05-05 18:27 | 58.20765 | 5.50800 | 32999 ft | 550 kts | 73° |
| 2026-05-05 18:28 | 58.24495 | 5.71332 | 33015 ft | 548 kts | 66° |
| 2026-05-05 18:28 | 58.27289 | 5.84811 | 33001 ft | 548 kts | 67° |
| 2026-05-05 18:29 | 58.30001 | 5.98345 | 33004 ft | 548 kts | 68° |
| 2026-05-05 18:29 | 58.32645 | 6.11963 | 32998 ft | 548 kts | 68° |
| 2026-05-05 18:30 | 58.35257 | 6.25617 | 33001 ft | 550 kts | 68° |
| 2026-05-05 18:30 | 58.37850 | 6.39259 | 33004 ft | 551 kts | 68° |
| 2026-05-05 18:31 | 58.40450 | 6.53008 | 32995 ft | 551 kts | 68° |
| 2026-05-05 18:31 | 58.43033 | 6.66772 | 32995 ft | 551 kts | 69° |
| 2026-05-05 18:32 | 58.45605 | 6.80577 | 32987 ft | 551 kts | 69° |
| 2026-05-05 18:32 | 58.48162 | 6.94383 | 32991 ft | 552 kts | 69° |
| 2026-05-05 18:33 | 58.50708 | 7.08243 | 32984 ft | 552 kts | 69° |
| 2026-05-05 18:33 | 58.53238 | 7.22117 | 32972 ft | 552 kts | 69° |
| 2026-05-05 18:34 | 58.55752 | 7.36012 | 32971 ft | 552 kts | 69° |
| 2026-05-05 18:34 | 58.58238 | 7.49847 | 32968 ft | 552 kts | 69° |
| 2026-05-05 18:35 | 58.60724 | 7.63784 | 32965 ft | 553 kts | 69° |
| 2026-05-05 18:35 | 58.63200 | 7.77778 | 32963 ft | 554 kts | 70° |
| 2026-05-05 18:36 | 58.65664 | 7.91803 | 32961 ft | 554 kts | 70° |
| 2026-05-05 18:36 | 58.68109 | 8.05825 | 32963 ft | 554 kts | 70° |
| 2026-05-05 18:37 | 58.70538 | 8.19870 | 32950 ft | 554 kts | 70° |
| 2026-05-05 18:37 | 58.72943 | 8.33876 | 32944 ft | 554 kts | 70° |
| 2026-05-05 18:38 | 58.74960 | 8.45705 | 32948 ft | 555 kts | 70° |
| 2026-05-05 18:38 | 58.77353 | 8.59847 | 32933 ft | 556 kts | 70° |
| 2026-05-05 18:39 | 58.79742 | 8.74074 | 32941 ft | 557 kts | 70° |
| 2026-05-05 18:39 | 58.82113 | 8.88304 | 32916 ft | 557 kts | 70° |
| 2026-05-05 18:40 | 58.84454 | 9.02467 | 32923 ft | 557 kts | 71° |
| 2026-05-05 18:40 | 58.86758 | 9.16759 | 32916 ft | 557 kts | 71° |
| 2026-05-05 18:41 | 58.88984 | 9.31120 | 32920 ft | 557 kts | 72° |
| 2026-05-05 18:41 | 58.91194 | 9.45495 | 32916 ft | 557 kts | 72° |
| 2026-05-05 18:42 | 58.93401 | 9.59886 | 32914 ft | 557 kts | 72° |
| 2026-05-05 18:42 | 58.95596 | 9.74290 | 32969 ft | 558 kts | 72° |
| 2026-05-05 18:43 | 58.97782 | 9.88752 | 32915 ft | 560 kts | 72° |
| 2026-05-05 18:43 | 58.99943 | 10.03168 | 32914 ft | 561 kts | 72° |
| 2026-05-05 18:44 | 59.02101 | 10.17706 | 32915 ft | 560 kts | 72° |
| 2026-05-05 18:44 | 59.04243 | 10.32265 | 32915 ft | 561 kts | 72° |
| 2026-05-05 18:45 | 59.06371 | 10.46849 | 32951 ft | 561 kts | 72° |
| 2026-05-05 18:45 | 59.08483 | 10.61454 | 32974 ft | 561 kts | 73° |
| 2026-05-05 18:46 | 59.10577 | 10.76075 | 32992 ft | 561 kts | 73° |
| 2026-05-05 18:46 | 59.12643 | 10.90624 | 33002 ft | 561 kts | 73° |
| 2026-05-05 18:47 | 59.14709 | 11.05304 | 33302 ft | 563 kts | 73° |
| 2026-05-05 18:47 | 59.16765 | 11.20061 | 33571 ft | 564 kts | 74° |
| 2026-05-05 18:48 | 59.17488 | 11.27578 | 33715 ft | 564 kts | 85° |
| 2026-05-05 18:48 | 59.17531 | 11.35201 | 33907 ft | 562 kts | 97° |
| 2026-05-05 18:48 | 59.16917 | 11.42712 | 34102 ft | 559 kts | 104° |
| 2026-05-05 18:48 | 59.16090 | 11.50097 | 34335 ft | 556 kts | 106° |
| 2026-05-05 18:49 | 59.15168 | 11.57403 | 34569 ft | 554 kts | 107° |
| 2026-05-05 18:49 | 59.14201 | 11.64674 | 34783 ft | 553 kts | 108° |
| 2026-05-05 18:49 | 59.13287 | 11.71951 | 34906 ft | 556 kts | 102° |
| 2026-05-05 18:49 | 59.12902 | 11.79447 | 34925 ft | 559 kts | 90° |
| 2026-05-05 18:50 | 59.13374 | 11.94536 | 34921 ft | 558 kts | 85° |
| 2026-05-05 18:50 | 59.14206 | 12.09581 | 34919 ft | 558 kts | 83° |
| 2026-05-05 18:51 | 59.15059 | 12.24509 | 34918 ft | 558 kts | 84° |
| 2026-05-05 18:51 | 59.15865 | 12.39576 | 34912 ft | 558 kts | 84° |
| 2026-05-05 18:52 | 59.16628 | 12.54627 | 34914 ft | 558 kts | 84° |
| 2026-05-05 18:52 | 59.17366 | 12.69693 | 34914 ft | 558 kts | 85° |
| 2026-05-05 18:53 | 59.18088 | 12.84756 | 34915 ft | 558 kts | 85° |
| 2026-05-05 18:53 | 59.18795 | 12.99849 | 34905 ft | 557 kts | 85° |
| 2026-05-05 18:54 | 59.19484 | 13.14908 | 34895 ft | 557 kts | 85° |
| 2026-05-05 18:54 | 59.20149 | 13.29853 | 34899 ft | 557 kts | 85° |
| 2026-05-05 18:55 | 59.20803 | 13.44937 | 34897 ft | 558 kts | 85° |
| 2026-05-05 18:55 | 59.21441 | 13.60067 | 34878 ft | 559 kts | 86° |
| 2026-05-05 18:56 | 59.22063 | 13.75213 | 34895 ft | 558 kts | 86° |
| 2026-05-05 18:56 | 59.22661 | 13.90214 | 34898 ft | 558 kts | 86° |
| 2026-05-05 18:57 | 59.23244 | 14.05313 | 34903 ft | 558 kts | 86° |
| 2026-05-05 18:57 | 59.23811 | 14.20422 | 34902 ft | 558 kts | 86° |
| 2026-05-05 18:58 | 59.24360 | 14.35529 | 34907 ft | 557 kts | 86° |
| 2026-05-05 18:58 | 59.24891 | 14.50633 | 34896 ft | 557 kts | 87° |
| 2026-05-05 18:59 | 59.25404 | 14.65727 | 34906 ft | 557 kts | 87° |
| 2026-05-05 18:59 | 59.25899 | 14.80808 | 34910 ft | 557 kts | 87° |
| 2026-05-05 19:00 | 59.26378 | 14.95929 | 34882 ft | 557 kts | 87° |
| 2026-05-05 19:00 | 59.26839 | 15.11058 | 34911 ft | 557 kts | 87° |
| 2026-05-05 19:01 | 59.27281 | 15.26178 | 34914 ft | 557 kts | 88° |
| 2026-05-05 19:01 | 59.27707 | 15.41323 | 34904 ft | 558 kts | 88° |
| 2026-05-05 19:02 | 59.28116 | 15.56487 | 34897 ft | 559 kts | 88° |
| 2026-05-05 19:02 | 59.28506 | 15.71588 | 34888 ft | 559 kts | 88° |
| 2026-05-05 19:03 | 59.28881 | 15.86788 | 34890 ft | 559 kts | 88° |
| 2026-05-05 19:03 | 59.29238 | 16.01982 | 34889 ft | 559 kts | 89° |
| 2026-05-05 19:04 | 59.29577 | 16.17181 | 34886 ft | 559 kts | 89° |
| 2026-05-05 19:04 | 59.29900 | 16.32367 | 34866 ft | 558 kts | 89° |
| 2026-05-05 19:05 | 59.30292 | 16.47446 | 34888 ft | 558 kts | 88° |
| 2026-05-05 19:05 | 59.30675 | 16.62637 | 34891 ft | 558 kts | 88° |
| 2026-05-05 19:06 | 59.31032 | 16.77812 | 34893 ft | 558 kts | 89° |
| 2026-05-05 19:06 | 59.31369 | 16.92980 | 34880 ft | 558 kts | 89° |
| 2026-05-05 19:07 | 59.31688 | 17.08175 | 34874 ft | 557 kts | 89° |
| 2026-05-05 19:07 | 59.31989 | 17.23337 | 34934 ft | 556 kts | 89° |
| 2026-05-05 19:08 | 59.32269 | 17.38406 | 34872 ft | 558 kts | 89° |
| 2026-05-05 19:08 | 59.32444 | 17.51339 | 35055 ft | 556 kts | 90° |
| 2026-05-05 19:09 | 59.32711 | 17.66563 | 34885 ft | 560 kts | 89° |
| 2026-05-05 19:09 | 59.32971 | 17.81798 | 34882 ft | 559 kts | 90° |
| 2026-05-05 19:10 | 59.33195 | 17.97015 | 34885 ft | 558 kts | 90° |
| 2026-05-05 19:10 | 59.33394 | 18.12193 | 34884 ft | 557 kts | 91° |
| 2026-05-05 19:11 | 59.33574 | 18.27375 | 34882 ft | 557 kts | 91° |
| 2026-05-05 19:11 | 59.33736 | 18.42548 | 34872 ft | 557 kts | 91° |
| 2026-05-05 19:12 | 59.33880 | 18.57724 | 34877 ft | 557 kts | 91° |
| 2026-05-05 19:12 | 59.34007 | 18.72872 | 34878 ft | 556 kts | 91° |
| 2026-05-05 19:13 | 59.34115 | 18.87950 | 34881 ft | 556 kts | 91° |
| 2026-05-05 19:13 | 59.34206 | 19.03098 | 34884 ft | 556 kts | 91° |
| 2026-05-05 19:14 | 59.34280 | 19.18267 | 34904 ft | 557 kts | 92° |
| 2026-05-05 19:14 | 59.34336 | 19.33449 | 34884 ft | 557 kts | 92° |
| 2026-05-05 19:15 | 59.34375 | 19.48629 | 34887 ft | 557 kts | 92° |
| 2026-05-05 19:15 | 59.34396 | 19.63832 | 34885 ft | 557 kts | 92° |
| 2026-05-05 19:16 | 59.34470 | 19.79018 | 34878 ft | 557 kts | 89° |
| 2026-05-05 19:16 | 59.34552 | 19.94226 | 34884 ft | 558 kts | 90° |
| 2026-05-05 19:17 | 59.34551 | 20.09423 | 34877 ft | 558 kts | 90° |
| 2026-05-05 19:17 | 59.34510 | 20.24611 | 34878 ft | 557 kts | 91° |
| 2026-05-05 19:18 | 59.34449 | 20.39698 | 34693 ft | 556 kts | 91° |
| 2026-05-05 19:18 | 59.34411 | 20.47269 | 34431 ft | 557 kts | 91° |
| 2026-05-05 19:18 | 59.34366 | 20.54870 | 34197 ft | 558 kts | 91° |
| 2026-05-05 19:19 | 59.34316 | 20.62479 | 33967 ft | 559 kts | 92° |
| 2026-05-05 19:19 | 59.34262 | 20.70105 | 33708 ft | 560 kts | 92° |
| 2026-05-05 19:19 | 59.34203 | 20.77732 | 33432 ft | 560 kts | 92° |
| 2026-05-05 19:19 | 59.34139 | 20.85382 | 33160 ft | 561 kts | 92° |
| 2026-05-05 19:20 | 59.34070 | 20.93024 | 32894 ft | 561 kts | 92° |
| 2026-05-05 19:20 | 59.33998 | 21.00690 | 32629 ft | 562 kts | 92° |
| 2026-05-05 19:20 | 59.33920 | 21.08358 | 32410 ft | 563 kts | 92° |
| 2026-05-05 19:20 | 59.33838 | 21.16020 | 32114 ft | 564 kts | 92° |
| 2026-05-05 19:21 | 59.33751 | 21.23720 | 31854 ft | 565 kts | 92° |
| 2026-05-05 19:21 | 59.33659 | 21.31418 | 31605 ft | 566 kts | 92° |
| 2026-05-05 19:21 | 59.33562 | 21.39131 | 31355 ft | 566 kts | 93° |
| 2026-05-05 19:21 | 59.33461 | 21.46845 | 31102 ft | 567 kts | 93° |
| 2026-05-05 19:22 | 59.33356 | 21.54543 | 30737 ft | 564 kts | 93° |
| 2026-05-05 19:22 | 59.33248 | 21.62214 | 29958 ft | 564 kts | 93° |
| 2026-05-05 19:22 | 59.33133 | 21.69833 | 29289 ft | 552 kts | 93° |
| 2026-05-05 19:22 | 59.33025 | 21.77209 | 28737 ft | 530 kts | 93° |
| 2026-05-05 19:23 | 59.32916 | 21.84333 | 28336 ft | 518 kts | 93° |
| 2026-05-05 19:23 | 59.32804 | 21.91316 | 28105 ft | 508 kts | 93° |
| 2026-05-05 19:23 | 59.32692 | 21.98079 | 27890 ft | 498 kts | 93° |
| 2026-05-05 19:23 | 59.32576 | 22.04783 | 27683 ft | 488 kts | 93° |
| 2026-05-05 19:24 | 59.32455 | 22.11434 | 27257 ft | 476 kts | 94° |
| 2026-05-05 19:24 | 59.32379 | 22.17774 | 26366 ft | 469 kts | 90° |
| 2026-05-05 19:24 | 59.32481 | 22.24180 | 25479 ft | 469 kts | 89° |
| 2026-05-05 19:24 | 59.32599 | 22.30537 | 24808 ft | 464 kts | 89° |
| 2026-05-05 19:25 | 59.32702 | 22.36828 | 24173 ft | 459 kts | 89° |
| 2026-05-05 19:25 | 59.32789 | 22.43039 | 23617 ft | 452 kts | 89° |
| 2026-05-05 19:25 | 59.32841 | 22.47104 | 23111 ft | 451 kts | 89° |
| 2026-05-05 19:25 | 59.32912 | 22.53204 | 22630 ft | 446 kts | 89° |
| 2026-05-05 19:26 | 59.32981 | 22.59263 | 22235 ft | 443 kts | 90° |
| 2026-05-05 19:26 | 59.33043 | 22.65283 | 21809 ft | 440 kts | 91° |
| 2026-05-05 19:26 | 59.33073 | 22.71245 | 21413 ft | 437 kts | 91° |
| 2026-05-05 19:26 | 59.33100 | 22.77186 | 21021 ft | 435 kts | 91° |
| 2026-05-05 19:27 | 59.33133 | 22.83100 | 20661 ft | 433 kts | 91° |
| 2026-05-05 19:27 | 59.33171 | 22.89001 | 20200 ft | 433 kts | 91° |
| 2026-05-05 19:27 | 59.33211 | 22.94883 | 19832 ft | 430 kts | 91° |
| 2026-05-05 19:27 | 59.33251 | 23.00732 | 19479 ft | 427 kts | 91° |
| 2026-05-05 19:28 | 59.33288 | 23.06536 | 19118 ft | 425 kts | 91° |
| 2026-05-05 19:28 | 59.33324 | 23.12307 | 18752 ft | 422 kts | 91° |
| 2026-05-05 19:28 | 59.33357 | 23.17972 | 18388 ft | 420 kts | 91° |
| 2026-05-05 19:28 | 59.33388 | 23.23662 | 18073 ft | 416 kts | 91° |
| 2026-05-05 19:29 | 59.33417 | 23.29309 | 17691 ft | 414 kts | 92° |
| 2026-05-05 19:29 | 59.33442 | 23.34933 | 17296 ft | 412 kts | 92° |
| 2026-05-05 19:29 | 59.33465 | 23.40525 | 16919 ft | 409 kts | 92° |
| 2026-05-05 19:29 | 59.33486 | 23.46083 | 16499 ft | 405 kts | 92° |
| 2026-05-05 19:30 | 59.33503 | 23.51567 | 15911 ft | 402 kts | 92° |
| 2026-05-05 19:30 | 59.33519 | 23.57028 | 15354 ft | 399 kts | 92° |
| 2026-05-05 19:30 | 59.33532 | 23.62432 | 14817 ft | 396 kts | 92° |
| 2026-05-05 19:30 | 59.33543 | 23.67795 | 14305 ft | 392 kts | 92° |
| 2026-05-05 19:31 | 59.33551 | 23.73119 | 13801 ft | 389 kts | 92° |
| 2026-05-05 19:31 | 59.33558 | 23.78392 | 13267 ft | 385 kts | 91° |
| 2026-05-05 19:31 | 59.33563 | 23.83590 | 12873 ft | 376 kts | 91° |
| 2026-05-05 19:31 | 59.33565 | 23.88582 | 12496 ft | 357 kts | 92° |
| 2026-05-05 19:32 | 59.33563 | 23.93377 | 11900 ft | 348 kts | 92° |
| 2026-05-05 19:32 | 59.33557 | 23.98066 | 11330 ft | 339 kts | 92° |
| 2026-05-05 19:32 | 59.33552 | 24.02613 | 11095 ft | 333 kts | 92° |
| 2026-05-05 19:32 | 59.33544 | 24.07175 | 11011 ft | 334 kts | 92° |
| 2026-05-05 19:33 | 59.33537 | 24.11703 | 10805 ft | 333 kts | 92° |
| 2026-05-05 19:33 | 59.33528 | 24.16217 | 10648 ft | 329 kts | 92° |
| 2026-05-05 19:33 | 59.33519 | 24.20721 | 10551 ft | 330 kts | 92° |
| 2026-05-05 19:33 | 59.33509 | 24.25209 | 10404 ft | 328 kts | 92° |
| 2026-05-05 19:34 | 59.33499 | 24.29630 | 10030 ft | 322 kts | 91° |
| 2026-05-05 19:34 | 59.33487 | 24.33963 | 9562 ft | 322 kts | 91° |
| 2026-05-05 19:34 | 59.33473 | 24.38332 | 9295 ft | 319 kts | 91° |
| 2026-05-05 19:35 | 59.33441 | 24.46933 | 8729 ft | 311 kts | 91° |
| 2026-05-05 19:35 | 59.33422 | 24.51148 | 8283 ft | 308 kts | 90° |
| 2026-05-05 19:35 | 59.33402 | 24.55310 | 7858 ft | 303 kts | 90° |
| 2026-05-05 19:35 | 59.33380 | 24.59402 | 7551 ft | 299 kts | 90° |
| 2026-05-05 19:36 | 59.33359 | 24.63509 | 7338 ft | 301 kts | 90° |
| 2026-05-05 19:36 | 59.33336 | 24.67583 | 7071 ft | 298 kts | 90° |
| 2026-05-05 19:36 | 59.33313 | 24.71629 | 6799 ft | 296 kts | 89° |
| 2026-05-05 19:36 | 59.33289 | 24.75587 | 6544 ft | 293 kts | 89° |
| 2026-05-05 19:37 | 59.33262 | 24.79553 | 6278 ft | 290 kts | 89° |
| 2026-05-05 19:37 | 59.33236 | 24.83488 | 5981 ft | 287 kts | 89° |
| 2026-05-05 19:37 | 59.33209 | 24.87393 | 5649 ft | 286 kts | 89° |
| 2026-05-05 19:37 | 59.33180 | 24.91264 | 5354 ft | 284 kts | 88° |
| 2026-05-05 19:38 | 59.33151 | 24.95128 | 5055 ft | 282 kts | 88° |
| 2026-05-05 19:38 | 59.33119 | 24.98898 | 4889 ft | 270 kts | 88° |
| 2026-05-05 19:38 | 59.33084 | 25.02476 | 4597 ft | 256 kts | 88° |
| 2026-05-05 19:38 | 59.33049 | 25.05915 | 4163 ft | 247 kts | 88° |
| 2026-05-05 19:39 | 59.33015 | 25.09217 | 4044 ft | 245 kts | 88° |
| 2026-05-05 19:39 | 59.32985 | 25.12569 | 3979 ft | 245 kts | 88° |
| 2026-05-05 19:39 | 59.33016 | 25.15890 | 3794 ft | 242 kts | 76° |
| 2026-05-05 19:39 | 59.33685 | 25.18792 | 3633 ft | 231 kts | 42° |
| 2026-05-05 19:40 | 59.34991 | 25.20406 | 3483 ft | 219 kts | 9° |
| 2026-05-05 19:40 | 59.36468 | 25.20910 | 3331 ft | 219 kts | 0° |
| 2026-05-05 19:40 | 59.37990 | 25.21181 | 3176 ft | 219 kts | 357° |
| 2026-05-05 19:40 | 59.39439 | 25.20657 | 3008 ft | 208 kts | 326° |
| 2026-05-05 19:41 | 59.40448 | 25.18746 | 2862 ft | 194 kts | 303° |
| 2026-05-05 19:41 | 59.41006 | 25.16490 | 2724 ft | 176 kts | 285° |
| 2026-05-05 19:41 | 59.41170 | 25.14234 | 2608 ft | 163 kts | 275° |
| 2026-05-05 19:41 | 59.41205 | 25.12033 | 2458 ft | 157 kts | 273° |
| 2026-05-05 19:42 | 59.41233 | 25.09891 | 2305 ft | 157 kts | 273° |
| 2026-05-05 19:42 | 59.41244 | 25.07747 | 2213 ft | 157 kts | 271° |
| 2026-05-05 19:42 | 59.41244 | 25.05590 | 2102 ft | 158 kts | 272° |
| 2026-05-05 19:42 | 59.41258 | 25.03483 | 1903 ft | 156 kts | 272° |
| 2026-05-05 19:43 | 59.41268 | 25.01356 | 1685 ft | 156 kts | 272° |
| 2026-05-05 19:43 | 59.41273 | 24.99240 | 1478 ft | 154 kts | 272° |
| 2026-05-05 19:43 | 59.41281 | 24.97150 | 1251 ft | 150 kts | 271° |
| 2026-05-05 19:43 | 59.41283 | 24.95200 | 1022 ft | 137 kts | 269° |
| 2026-05-05 19:44 | 59.41292 | 24.93385 | 824 ft | 130 kts | 270° |
| 2026-05-05 19:44 | 59.41312 | 24.91601 | 673 ft | 132 kts | 267° |
| 2026-05-05 19:44 | 59.41307 | 24.89778 | 485 ft | 134 kts | 270° |
| 2026-05-05 19:44 | 59.41313 | 24.87969 | 315 ft | 132 kts | 270° |
| 2026-05-05 19:45 | 59.41317 | 24.86187 | 169 ft | 128 kts | 270° |
| 2026-05-05 19:45 | 59.41324 | 24.84878 | 166 ft | 63 kts | 272° |
| 2026-05-05 19:45 | 59.41326 | 24.84140 | 164 ft | 48 kts | 267° |
| 2026-05-05 19:45 | 59.41323 | 24.83495 | 168 ft | 47 kts | 270° |
| 2026-05-05 19:46 | 59.41338 | 24.82866 | 165 ft | 44 kts | 281° |
| 2026-05-05 19:46 | 59.41422 | 24.82461 | 165 ft | 17 kts | 300° |
| 2026-05-05 19:46 | 59.41469 | 24.82352 | 166 ft | 4 kts | 353° |
| 2026-05-05 19:46 | 59.41492 | 24.82398 | 166 ft | 8 kts | 59° |
| 2026-05-05 19:47 | 59.41501 | 24.82549 | 166 ft | 15 kts | 89° |
| 2026-05-05 19:47 | 59.41501 | 24.82767 | 166 ft | 16 kts | 90° |
| 2026-05-05 19:47 | 59.41499 | 24.82993 | 166 ft | 17 kts | 90° |
| 2026-05-05 19:47 | 59.41500 | 24.83247 | 166 ft | 21 kts | 90° |
| 2026-05-05 19:48 | 59.41499 | 24.83534 | 166 ft | 21 kts | 91° |
| 2026-05-05 19:48 | 59.41498 | 24.83828 | 166 ft | 22 kts | 90° |
| 2026-05-05 19:48 | 59.41498 | 24.84127 | 166 ft | 22 kts | 90° |
| 2026-05-05 19:48 | 59.41497 | 24.84430 | 166 ft | 22 kts | 90° |
| 2026-05-05 19:49 | 59.41497 | 24.84735 | 166 ft | 23 kts | 90° |
| 2026-05-05 19:49 | 59.41498 | 24.84915 | 166 ft | 12 kts | 91° |
| 2026-05-05 19:49 | 59.41435 | 24.85021 | 166 ft | 7 kts | 182° |
| 2026-05-05 19:49 | 59.41350 | 24.85014 | 166 ft | 18 kts | 181° |
| 2026-05-05 19:50 | 59.41215 | 24.85010 | 166 ft | 19 kts | 183° |
| 2026-05-05 19:50 | 59.41131 | 24.84988 | 166 ft | 10 kts | 180° |
| 2026-05-05 19:50 | 59.41082 | 24.84988 | 166 ft | 4 kts | 180° |
| 2026-05-05 19:50 | 59.41064 | 24.84988 | 166 ft | 0 kts | 180° |